Time;durP1;ratioP1;P1;durP2;ratioP2;P2;SDS_P1;SDS_P2;PMS_P1;PMS_P2;Temp;Humidity;BMP_temperature;BMP_pressure;BME280_temperature;BME280_humidity;BME280_pressure;Samples;Min_cycle;Max_cycle;Signal;HPM_P1;HPM_P2
2022/06/18 00:01:46;;;;;;;12.13;7.20;;;10.20;99.90;;;;;;4380619;28;657370;-66
2022/06/18 00:04:34;;;;;;;16.83;8.13;;;10.10;99.90;;;;;;4404667;28;657811;-66
2022/06/18 00:07:22;;;;;;;16.17;7.97;;;10.20;99.90;;;;;;4383789;28;657731;-66
2022/06/18 00:10:11;;;;;;;16.13;7.90;;;10.10;99.90;;;;;;4404614;28;659552;-66
2022/06/18 00:16:11;;;;;;;12.70;8.27;;;10.10;99.90;;;;;;4393343;28;657343;-66
2022/06/18 00:18:58;;;;;;;13.40;8.80;;;10.00;99.90;;;;;;4404961;28;657862;-66
2022/06/18 00:21:45;;;;;;;12.90;8.13;;;10.00;99.90;;;;;;4384736;28;657315;-66
2022/06/18 00:24:33;;;;;;;18.50;9.73;;;10.00;99.90;;;;;;4405536;28;657096;-66
2022/06/18 00:27:21;;;;;;;16.93;9.20;;;10.10;99.90;;;;;;4389584;28;657501;-66
2022/06/18 00:30:11;;;;;;;13.93;9.07;;;10.10;99.90;;;;;;4408945;28;657318;-66
2022/06/18 00:32:58;;;;;;;14.50;9.93;;;10.00;99.90;;;;;;4379362;28;658190;-66
2022/06/18 00:35:45;;;;;;;14.27;9.67;;;10.00;99.90;;;;;;4381812;28;657455;-66
2022/06/18 00:38:34;;;;;;;14.43;9.70;;;10.10;99.90;;;;;;4407587;28;657565;-66
2022/06/18 00:41:23;;;;;;;16.30;10.23;;;10.00;99.90;;;;;;4384017;28;657669;-66
2022/06/18 00:44:19;;;;;;;15.53;10.10;;;9.90;99.90;;;;;;4387023;28;659818;-66
2022/06/18 00:47:11;;;;;;;15.98;10.65;;;9.90;99.90;;;;;;4360535;28;658537;-66
2022/06/18 00:50:01;;;;;;;16.63;10.23;;;9.90;99.90;;;;;;4383795;28;658998;-66
2022/06/18 00:52:50;;;;;;;23.03;9.37;;;9.90;99.90;;;;;;4385576;28;657784;-66
2022/06/18 00:55:40;;;;;;;17.93;9.67;;;9.80;99.90;;;;;;4388986;28;656894;-66
2022/06/18 00:58:30;;;;;;;14.63;9.57;;;9.90;99.90;;;;;;4387539;28;657301;-66
2022/06/18 01:01:26;;;;;;;17.40;10.40;;;9.90;99.90;;;;;;4386844;28;657144;-66
2022/06/18 01:04:26;;;;;;;14.83;9.80;;;9.90;99.90;;;;;;4391768;28;657308;-66
2022/06/18 01:07:18;;;;;;;22.07;10.07;;;9.90;99.90;;;;;;4385315;28;656596;-66
2022/06/18 01:10:11;;;;;;;16.73;10.43;;;9.90;99.90;;;;;;4372328;28;658339;-66
2022/06/18 01:12:58;;;;;;;17.07;10.60;;;9.90;99.90;;;;;;4384292;28;658573;-66
2022/06/18 01:15:46;;;;;;;17.97;10.50;;;9.90;99.90;;;;;;4384102;28;658317;-66
2022/06/18 01:18:34;;;;;;;19.50;11.20;;;9.80;99.90;;;;;;4406786;28;657940;-66
2022/06/18 01:21:26;;;;;;;22.63;12.20;;;9.90;99.90;;;;;;4384568;28;658118;-66
2022/06/18 01:24:15;;;;;;;18.47;11.53;;;9.80;99.90;;;;;;4388035;28;657899;-66
2022/06/18 01:27:03;;;;;;;24.43;11.80;;;9.80;99.90;;;;;;4384117;28;658237;-66
2022/06/18 01:29:50;;;;;;;24.13;11.47;;;9.80;99.90;;;;;;4402421;28;657730;-66
2022/06/18 01:32:37;;;;;;;20.58;10.52;;;9.80;99.90;;;;;;4414380;28;657330;-66
2022/06/18 01:35:24;;;;;;;19.93;10.67;;;9.70;99.90;;;;;;4406439;28;657691;-66
2022/06/18 01:38:11;;;;;;;19.20;11.23;;;9.80;99.90;;;;;;4387251;28;659351;-66
2022/06/18 01:41:49;;;;;;;25.13;11.97;;;9.70;99.90;;;;;;4408852;28;658609;-66
2022/06/18 01:44:12;;;;;;;17.67;12.07;;;9.70;99.90;;;;;;4377636;28;658034;-66
2022/06/18 01:47:00;;;;;;;19.27;11.83;;;9.70;99.90;;;;;;4405588;28;657303;-66
2022/06/18 01:49:49;;;;;;;20.77;11.87;;;9.70;99.90;;;;;;4383370;28;658413;-66
2022/06/18 01:52:37;;;;;;;21.13;11.63;;;9.80;99.90;;;;;;4390086;28;657485;-66
2022/06/18 01:55:27;;;;;;;25.40;12.97;;;9.80;99.90;;;;;;4402077;28;657606;-66
2022/06/18 01:58:17;;;;;;;27.90;12.43;;;9.70;99.90;;;;;;4405259;28;657280;-66
2022/06/18 02:01:05;;;;;;;27.93;16.47;;;9.80;99.90;;;;;;4382883;28;657376;-66
2022/06/18 02:03:52;;;;;;;28.15;17.23;;;9.70;99.90;;;;;;4383902;28;658786;-66
2022/06/18 02:06:39;;;;;;;29.13;18.03;;;9.70;99.90;;;;;;4412396;28;656801;-66
2022/06/18 02:09:31;;;;;;;37.67;21.37;;;9.70;99.90;;;;;;4386626;28;658689;-66
2022/06/18 02:12:20;;;;;;;31.30;21.50;;;9.80;99.90;;;;;;4386931;28;658444;-66
2022/06/18 02:15:11;;;;;;;30.73;20.53;;;9.80;99.90;;;;;;4390038;28;658717;-66
2022/06/18 02:18:00;;;;;;;37.13;22.53;;;9.80;99.90;;;;;;4385808;28;658446;-66
2022/06/18 02:20:49;;;;;;;33.57;21.53;;;9.80;99.90;;;;;;4375792;28;658504;-66
2022/06/18 02:23:36;;;;;;;31.03;20.83;;;9.80;99.90;;;;;;4379404;28;657597;-66
2022/06/18 02:26:25;;;;;;;30.73;22.10;;;9.70;99.90;;;;;;4407945;28;658508;-66
2022/06/18 02:29:16;;;;;;;37.27;25.43;;;9.70;99.90;;;;;;4378340;28;658417;-66
2022/06/18 02:32:06;;;;;;;40.03;26.73;;;9.80;99.90;;;;;;4378788;28;658531;-66
2022/06/18 02:34:53;;;;;;;46.57;30.50;;;9.70;99.90;;;;;;4385834;28;657683;-66
2022/06/18 02:37:40;;;;;;;47.57;28.43;;;9.70;99.90;;;;;;4383491;28;657470;-66
2022/06/18 02:40:29;;;;;;;47.73;29.93;;;9.70;99.90;;;;;;4411780;28;657076;-66
2022/06/18 02:43:17;;;;;;;51.70;35.30;;;9.70;99.90;;;;;;4386018;28;657847;-66
2022/06/18 02:46:04;;;;;;;52.23;34.10;;;9.70;99.90;;;;;;4408709;28;657370;-66
2022/06/18 02:48:52;;;;;;;41.03;28.20;;;9.70;99.90;;;;;;4381767;28;657547;-67
2022/06/18 02:51:40;;;;;;;38.40;23.20;;;9.80;99.90;;;;;;4399777;28;657039;-66
2022/06/18 02:54:27;;;;;;;36.90;24.33;;;9.80;99.90;;;;;;4408200;28;657320;-67
2022/06/18 02:57:21;;;;;;;42.97;29.60;;;9.80;99.90;;;;;;4404345;28;658085;-66
2022/06/18 03:00:13;;;;;;;42.53;31.00;;;9.90;99.90;;;;;;4381531;28;658091;-66
2022/06/18 03:03:00;;;;;;;43.87;31.80;;;9.80;99.90;;;;;;4364254;28;657894;-67
2022/06/18 03:05:49;;;;;;;54.40;32.92;;;9.80;99.90;;;;;;4409500;28;656980;-66
2022/06/18 03:08:36;;;;;;;39.83;28.97;;;9.90;99.90;;;;;;4390286;28;658513;-66
2022/06/18 03:14:28;;;;;;;42.65;26.33;;;10.00;99.90;;;;;;4384523;28;658104;-66
2022/06/18 03:17:15;;;;;;;44.33;25.50;;;10.00;99.90;;;;;;4387647;28;658529;-67
2022/06/18 03:20:05;;;;;;;34.63;22.77;;;10.10;99.90;;;;;;4406271;28;659292;-66
2022/06/18 03:22:53;;;;;;;32.23;21.80;;;10.10;99.90;;;;;;4386538;28;659592;-67
2022/06/18 03:25:41;;;;;;;36.87;21.50;;;10.10;99.90;;;;;;4380635;28;658808;-67
2022/06/18 03:28:28;;;;;;;26.53;20.07;;;10.30;99.90;;;;;;4406899;28;659616;-67
2022/06/18 03:31:15;;;;;;;27.77;18.07;;;10.30;99.90;;;;;;4382268;28;658514;-67
2022/06/18 03:34:02;;;;;;;29.02;16.80;;;10.40;99.90;;;;;;4402568;28;659633;-67
2022/06/18 03:36:49;;;;;;;32.27;21.47;;;10.50;99.90;;;;;;4400492;28;658756;-67
2022/06/18 03:39:38;;;;;;;27.03;17.87;;;10.60;99.90;;;;;;4383085;28;658897;-67
2022/06/18 03:42:25;;;;;;;28.93;20.50;;;10.70;99.90;;;;;;4385031;28;658649;-67
2022/06/18 03:45:12;;;;;;;31.13;24.03;;;10.80;99.90;;;;;;4409312;28;659151;-67
2022/06/18 03:47:59;;;;;;;32.97;20.90;;;11.00;99.90;;;;;;4405542;28;658488;-67
2022/06/18 03:50:46;;;;;;;41.90;25.00;;;11.00;99.90;;;;;;4385837;28;659017;-67
2022/06/18 03:53:33;;;;;;;42.17;28.23;;;11.20;99.90;;;;;;4398725;28;659475;-67
2022/06/18 03:56:23;;;;;;;46.43;33.23;;;11.40;99.90;;;;;;4387176;28;658459;-67
2022/06/18 03:59:10;;;;;;;33.37;23.93;;;11.60;99.90;;;;;;4388198;28;659521;-67
2022/06/18 04:01:57;;;;;;;30.37;21.00;;;11.70;99.90;;;;;;4399924;28;659817;-67
2022/06/18 04:04:45;;;;;;;27.23;14.73;;;12.00;99.90;;;;;;4402977;28;658763;-67
2022/06/18 04:07:32;;;;;;;19.77;10.33;;;12.20;99.90;;;;;;4401186;28;658635;-67
2022/06/18 04:10:21;;;;;;;18.90;9.63;;;12.50;99.90;;;;;;4406352;28;659038;-67
2022/06/18 04:13:09;;;;;;;16.13;8.37;;;12.60;99.90;;;;;;4383121;28;657697;-67
2022/06/18 04:15:57;;;;;;;12.30;7.40;;;12.70;99.90;;;;;;4388490;28;658192;-66
2022/06/18 04:18:44;;;;;;;13.13;7.10;;;12.90;99.90;;;;;;4403491;28;657037;-67
2022/06/18 04:21:31;;;;;;;14.83;7.03;;;13.30;99.90;;;;;;4385161;28;657906;-67
2022/06/18 04:24:18;;;;;;;15.07;7.00;;;13.30;99.90;;;;;;4405217;28;657911;-67
2022/06/18 04:27:06;;;;;;;13.77;6.70;;;13.50;99.90;;;;;;4385674;28;657825;-67
2022/06/18 04:29:54;;;;;;;12.00;6.47;;;13.70;99.90;;;;;;4412314;28;657978;-67
2022/06/18 04:32:41;;;;;;;11.98;6.93;;;13.80;99.90;;;;;;4386846;28;657693;-67
2022/06/18 04:35:28;;;;;;;15.63;7.37;;;13.90;99.90;;;;;;4404785;28;658245;-67
2022/06/18 04:38:16;;;;;;;13.23;6.77;;;14.20;99.90;;;;;;4386702;28;657313;-66
2022/06/18 04:41:03;;;;;;;9.77;5.10;;;14.30;99.90;;;;;;4401797;28;658226;-67
2022/06/18 04:43:50;;;;;;;8.57;5.30;;;14.40;99.90;;;;;;4396123;28;656325;-66
2022/06/18 04:46:39;;;;;;;10.80;5.10;;;14.50;99.90;;;;;;4403814;28;656977;-66
2022/06/18 04:49:26;;;;;;;10.43;4.80;;;14.60;99.90;;;;;;4384660;28;657471;-67
2022/06/18 04:52:13;;;;;;;10.90;4.68;;;14.80;99.90;;;;;;4411505;28;658422;-67
2022/06/18 04:55:00;;;;;;;8.73;5.03;;;15.00;99.90;;;;;;4391221;28;658012;-67
2022/06/18 04:57:47;;;;;;;9.47;4.63;;;15.00;99.90;;;;;;4410286;28;656891;-67
2022/06/18 05:00:34;;;;;;;10.03;4.97;;;15.20;99.90;;;;;;4410944;28;656134;-66
2022/06/18 05:03:23;;;;;;;7.73;4.57;;;15.30;99.90;;;;;;4387956;28;658019;-66
2022/06/18 05:06:10;;;;;;;8.40;4.50;;;15.40;99.90;;;;;;4393743;28;656662;-66
2022/06/18 05:08:57;;;;;;;8.73;4.87;;;15.50;99.90;;;;;;4411051;28;657478;-66
2022/06/18 05:11:44;;;;;;;7.90;4.60;;;15.50;99.90;;;;;;4408357;28;656970;-66
2022/06/18 05:14:32;;;;;;;11.37;4.27;;;15.60;99.90;;;;;;4392465;28;656657;-66
2022/06/18 05:17:21;;;;;;;11.90;4.80;;;15.80;99.90;;;;;;4409639;28;657486;-66
2022/06/18 05:20:11;;;;;;;10.27;4.70;;;15.90;99.90;;;;;;4384454;28;658709;-66
2022/06/18 05:22:58;;;;;;;11.93;4.90;;;16.00;99.90;;;;;;4389461;28;657487;-66
2022/06/18 05:25:46;;;;;;;10.23;4.70;;;16.00;99.90;;;;;;4388921;28;657619;-66
2022/06/18 05:28:33;;;;;;;13.93;4.57;;;16.00;99.90;;;;;;4410731;28;658684;-66
2022/06/18 05:31:20;;;;;;;9.23;4.73;;;16.10;99.90;;;;;;4391511;28;658011;-66
2022/06/18 05:34:07;;;;;;;9.10;5.00;;;16.10;99.90;;;;;;4415234;28;656982;-66
2022/06/18 05:36:56;;;;;;;9.43;4.57;;;16.20;99.90;;;;;;4410109;28;656989;-66
2022/06/18 05:39:43;;;;;;;12.00;4.97;;;16.20;99.90;;;;;;4357408;28;657500;-66
2022/06/18 05:42:30;;;;;;;10.10;5.07;;;16.40;99.90;;;;;;4390615;28;657601;-66
2022/06/18 05:45:17;;;;;;;12.07;4.90;;;16.50;99.90;;;;;;4409105;28;659299;-66
2022/06/18 05:48:05;;;;;;;7.57;4.70;;;16.60;99.90;;;;;;4408198;28;656695;-66
2022/06/18 05:50:52;;;;;;;10.27;5.43;;;16.70;99.90;;;;;;4385751;28;657385;-66
2022/06/18 05:53:41;;;;;;;17.10;5.40;;;16.80;99.90;;;;;;4397804;28;658628;-66
2022/06/18 05:56:28;;;;;;;11.77;5.63;;;16.90;99.90;;;;;;4373222;28;657862;-66
2022/06/18 05:59:15;;;;;;;11.43;6.07;;;16.90;99.90;;;;;;4382595;28;657995;-66
2022/06/18 06:02:02;;;;;;;10.73;5.50;;;17.00;99.90;;;;;;4390177;28;657708;-66
2022/06/18 06:04:50;;;;;;;8.33;4.87;;;17.10;99.90;;;;;;4388736;28;658035;-66
2022/06/18 06:07:37;;;;;;;10.43;4.70;;;17.00;99.90;;;;;;4399524;28;656676;-66
2022/06/18 06:13:32;;;;;;;12.23;5.30;;;17.20;99.90;;;;;;4385623;28;657492;-66
2022/06/18 06:16:20;;;;;;;12.13;5.40;;;17.30;99.90;;;;;;4409708;28;657154;-66
2022/06/18 06:19:07;;;;;;;9.10;5.07;;;17.40;99.90;;;;;;4386404;28;658419;-66
2022/06/18 06:21:54;;;;;;;10.63;5.13;;;17.70;99.90;;;;;;4401409;28;657634;-66
2022/06/18 06:24:41;;;;;;;11.27;5.97;;;17.80;99.90;;;;;;4387307;28;658123;-66
2022/06/18 06:27:30;;;;;;;15.27;5.70;;;17.70;99.90;;;;;;4404604;28;658517;-66
2022/06/18 06:30:17;;;;;;;9.30;5.20;;;17.90;99.90;;;;;;4390046;28;657790;-66
2022/06/18 06:33:04;;;;;;;23.33;4.90;;;18.10;99.90;;;;;;4412155;28;656556;-66
2022/06/18 06:35:52;;;;;;;13.33;5.47;;;18.10;99.90;;;;;;4387501;28;657690;-67
2022/06/18 06:38:40;;;;;;;12.57;5.27;;;18.10;99.90;;;;;;4401561;28;657258;-66
2022/06/18 06:41:28;;;;;;;8.97;4.90;;;18.40;99.90;;;;;;4408516;28;658191;-66
2022/06/18 06:44:17;;;;;;;7.88;4.55;;;18.40;99.90;;;;;;4389844;28;656656;-66
2022/06/18 06:47:04;;;;;;;11.13;4.40;;;18.50;99.90;;;;;;4408526;28;656962;-66
2022/06/18 06:49:52;;;;;;;9.87;4.50;;;18.80;99.90;;;;;;4383945;28;657571;-66
2022/06/18 06:52:39;;;;;;;8.97;4.67;;;18.70;99.90;;;;;;4405544;28;657109;-66
2022/06/18 06:58:32;;;;;;;6.87;4.00;;;18.90;99.90;;;;;;4359898;28;658505;-66
2022/06/18 07:01:20;;;;;;;7.63;3.70;;;18.90;99.90;;;;;;4410874;28;656322;-66
2022/06/18 07:04:09;;;;;;;8.60;3.85;;;19.10;99.90;;;;;;4387868;28;657001;-66
2022/06/18 07:06:57;;;;;;;6.47;3.90;;;19.30;99.90;;;;;;4386095;28;656840;-66
2022/06/18 07:09:45;;;;;;;6.87;4.17;;;19.30;99.90;;;;;;4401287;28;657968;-66
2022/06/18 07:12:32;;;;;;;7.40;4.07;;;19.40;99.90;;;;;;4407257;28;656136;-66
2022/06/18 07:15:20;;;;;;;7.53;3.80;;;19.70;99.90;;;;;;4407059;28;656698;-66
2022/06/18 07:18:11;;;;;;;8.43;3.83;;;19.70;99.90;;;;;;4377045;28;656873;-66
2022/06/18 07:20:59;;;;;;;11.77;3.83;;;19.70;99.90;;;;;;4381436;28;657595;-66
2022/06/18 07:23:46;;;;;;;7.63;4.10;;;19.90;99.90;;;;;;4384154;28;657607;-66
2022/06/18 07:26:33;;;;;;;9.60;4.00;;;20.20;99.90;;;;;;4406767;28;657534;-66
2022/06/18 07:29:21;;;;;;;8.37;3.70;;;20.40;99.90;;;;;;4386926;28;656719;-66
2022/06/18 07:32:09;;;;;;;9.43;4.07;;;20.20;99.00;;;;;;4407335;28;657581;-66
2022/06/18 07:34:57;;;;;;;6.23;3.67;;;20.20;98.40;;;;;;4385927;28;657284;-67
2022/06/18 07:37:44;;;;;;;7.33;3.70;;;20.40;99.90;;;;;;4405215;28;656881;-67
2022/06/18 07:40:33;;;;;;;5.40;3.30;;;20.30;99.90;;;;;;4380308;28;656890;-67
2022/06/18 07:43:21;;;;;;;7.73;3.43;;;20.50;99.50;;;;;;4395883;28;656363;-66
2022/06/18 07:46:10;;;;;;;6.33;3.30;;;20.70;99.90;;;;;;4405154;28;656625;-66
2022/06/18 07:48:57;;;;;;;10.93;2.87;;;20.40;95.40;;;;;;4376372;28;657408;-66
2022/06/18 07:51:46;;;;;;;7.17;2.90;;;20.50;92.00;;;;;;4399616;28;657816;-66
2022/06/18 07:54:33;;;;;;;5.07;2.67;;;20.80;92.90;;;;;;4405606;28;656989;-66
2022/06/18 07:57:21;;;;;;;5.73;2.50;;;20.90;90.10;;;;;;4384557;28;657172;-67
2022/06/18 08:00:09;;;;;;;5.37;2.70;;;20.80;91.20;;;;;;4406932;28;656986;-66
2022/06/18 08:02:56;;;;;;;5.70;2.50;;;20.90;93.20;;;;;;4385403;28;656365;-66
2022/06/18 08:05:44;;;;;;;5.97;3.00;;;20.80;90.00;;;;;;4403671;28;656634;-66
2022/06/18 08:08:32;;;;;;;6.40;2.60;;;20.80;93.80;;;;;;4385850;28;656600;-66
2022/06/18 08:11:20;;;;;;;5.50;2.60;;;20.90;95.80;;;;;;4400006;28;656517;-67
2022/06/18 08:14:07;;;;;;;5.07;2.70;;;21.30;93.30;;;;;;4377099;28;657608;-67
2022/06/18 08:16:54;;;;;;;4.60;2.37;;;21.60;94.60;;;;;;4397409;28;656438;-67
2022/06/18 08:19:41;;;;;;;6.60;2.60;;;21.50;90.20;;;;;;4381020;28;657578;-67
2022/06/18 08:22:28;;;;;;;6.00;2.40;;;21.30;91.20;;;;;;4406800;28;657362;-66
2022/06/18 08:25:17;;;;;;;3.60;2.00;;;21.70;97.90;;;;;;4385603;28;656763;-67
2022/06/18 08:28:07;;;;;;;5.27;2.50;;;21.30;89.70;;;;;;4403498;28;656752;-66
2022/06/18 08:30:54;;;;;;;2.83;1.97;;;21.60;90.90;;;;;;4381891;28;656491;-66
2022/06/18 08:33:41;;;;;;;6.13;2.27;;;21.50;86.70;;;;;;4379504;28;657400;-67
2022/06/18 08:36:29;;;;;;;5.90;1.87;;;21.60;83.60;;;;;;4400789;28;656935;-66
2022/06/18 08:39:16;;;;;;;3.10;1.83;;;21.50;85.60;;;;;;4386332;28;656361;-67
2022/06/18 08:42:20;;;;;;;4.07;1.90;;;22.10;87.00;;;;;;4410160;28;657744;-67
2022/06/18 08:45:23;;;;;;;3.27;1.90;;;22.20;80.90;;;;;;4359347;28;656945;-67
2022/06/18 08:48:21;;;;;;;15.60;2.40;;;22.30;82.20;;;;;;4375889;28;656758;-67
2022/06/18 08:51:15;;;;;;;7.80;2.00;;;22.80;85.70;;;;;;4381072;28;658163;-67
2022/06/18 08:54:33;;;;;;;6.93;2.40;;;22.40;77.30;;;;;;4384440;28;657010;-66
2022/06/18 08:57:25;;;;;;;3.77;1.87;;;21.80;77.60;;;;;;4331782;28;656434;-66
2022/06/18 09:00:14;;;;;;;3.80;1.80;;;21.70;80.40;;;;;;4382331;28;656866;-66
2022/06/18 09:03:05;;;;;;;2.43;1.80;;;21.80;76.00;;;;;;4382442;28;656568;-67
2022/06/18 09:05:59;;;;;;;3.70;1.90;;;22.50;78.20;;;;;;4380638;28;657937;-67
2022/06/18 09:08:54;;;;;;;3.80;1.77;;;22.50;73.30;;;;;;4377547;28;656755;-67
2022/06/18 09:11:52;;;;;;;3.35;1.60;;;22.60;72.00;;;;;;4377433;28;656326;-67
2022/06/18 09:14:42;;;;;;;5.40;1.73;;;22.80;71.30;;;;;;4385100;28;656389;-67
2022/06/18 09:17:34;;;;;;;3.53;1.70;;;22.70;73.60;;;;;;4401750;28;657043;-67
2022/06/18 09:20:23;;;;;;;3.67;1.80;;;22.90;72.00;;;;;;4382167;28;656631;-67
2022/06/18 09:23:12;;;;;;;4.30;1.80;;;23.10;72.90;;;;;;4383914;28;657655;-68
2022/06/18 09:26:00;;;;;;;3.97;1.97;;;23.70;75.80;;;;;;4404481;28;656679;-67
2022/06/18 09:28:50;;;;;;;5.43;1.60;;;23.80;66.50;;;;;;4382806;28;656777;-68
2022/06/18 09:31:42;;;;;;;3.07;1.70;;;24.00;71.60;;;;;;4381729;28;657456;-67
2022/06/18 09:34:31;;;;;;;3.30;1.65;;;24.00;72.10;;;;;;4383133;28;656809;-67
2022/06/18 09:37:21;;;;;;;4.22;1.80;;;23.30;69.60;;;;;;4379010;28;659040;-67
2022/06/18 09:40:12;;;;;;;4.80;1.60;;;23.00;68.50;;;;;;4384940;28;657373;-67
2022/06/18 09:43:02;;;;;;;5.17;1.63;;;22.80;69.50;;;;;;4386201;28;656725;-67
2022/06/18 09:45:50;;;;;;;3.43;1.63;;;23.40;64.70;;;;;;4380285;28;656411;-67
2022/06/18 09:48:39;;;;;;;2.30;1.52;;;23.50;66.20;;;;;;4388367;28;657147;-67
2022/06/18 09:51:32;;;;;;;2.85;1.67;;;23.80;67.00;;;;;;4387711;28;656284;-67
2022/06/18 09:54:20;;;;;;;4.13;1.67;;;24.20;63.50;;;;;;4391282;28;657236;-67
2022/06/18 09:57:09;;;;;;;3.30;1.63;;;23.60;67.50;;;;;;4409087;28;657383;-67
2022/06/18 10:00:02;;;;;;;2.58;1.42;;;23.40;63.70;;;;;;4387031;28;656715;-67
2022/06/18 10:02:53;;;;;;;1.80;1.52;;;23.80;67.40;;;;;;4380242;28;656517;-67
2022/06/18 10:08:50;;;;;;;4.50;1.50;;;23.30;62.40;;;;;;4362261;28;657009;-67
2022/06/18 10:11:38;;;;;;;7.60;1.73;;;23.10;63.90;;;;;;4401124;28;657425;-67
2022/06/18 10:14:25;;;;;;;5.73;1.73;;;23.00;67.90;;;;;;4387049;28;656270;-67
2022/06/18 10:17:16;;;;;;;3.27;1.60;;;23.00;66.90;;;;;;4411691;28;656799;-67
2022/06/18 10:20:06;;;;;;;2.20;1.50;;;23.40;65.10;;;;;;4383701;28;657539;-67
2022/06/18 10:23:00;;;;;;;5.50;1.53;;;23.10;64.20;;;;;;4380225;28;657584;-67
2022/06/18 10:25:51;;;;;;;4.30;1.30;;;23.20;65.90;;;;;;4358996;28;657280;-68
2022/06/18 10:28:44;;;;;;;7.83;1.30;;;23.90;69.20;;;;;;4388085;28;657064;-67
2022/06/18 10:31:40;;;;;;;1.92;1.55;;;23.80;62.80;;;;;;4368345;28;656598;-67
2022/06/18 10:34:38;;;;;;;7.78;1.60;;;24.20;63.90;;;;;;4358570;28;656929;-67
2022/06/18 10:37:30;;;;;;;6.32;1.60;;;23.70;62.50;;;;;;4362289;28;656714;-67
2022/06/18 10:40:22;;;;;;;4.13;1.60;;;23.80;61.30;;;;;;4385112;28;656816;-67
2022/06/18 10:43:16;;;;;;;3.75;1.63;;;24.60;65.20;;;;;;4378366;28;656455;-67
2022/06/18 10:46:06;;;;;;;2.75;1.67;;;25.50;70.00;;;;;;4379188;28;656941;-67
2022/06/18 10:48:54;;;;;;;5.20;1.95;;;25.30;65.40;;;;;;4383047;28;657546;-67
2022/06/18 10:51:43;;;;;;;2.08;1.42;;;25.30;63.70;;;;;;4384042;28;656862;-67
2022/06/18 10:54:32;;;;;;;2.30;1.35;;;25.30;63.30;;;;;;4388772;28;656482;-67
2022/06/18 10:57:25;;;;;;;3.03;1.70;;;24.90;63.30;;;;;;4405862;28;656014;-67
2022/06/18 11:00:14;;;;;;;2.47;1.40;;;24.40;60.70;;;;;;4390409;28;657057;-66
2022/06/18 11:03:02;;;;;;;3.55;1.40;;;24.10;58.60;;;;;;4383596;28;656362;-66
2022/06/18 11:05:49;;;;;;;2.25;1.40;;;24.30;58.20;;;;;;4403309;28;656617;-66
2022/06/18 11:08:36;;;;;;;2.00;1.30;;;24.90;59.90;;;;;;4388944;28;657589;-67
2022/06/18 11:11:25;;;;;;;5.53;1.65;;;24.70;57.00;;;;;;4403601;28;657312;-67
2022/06/18 11:14:17;;;;;;;2.75;1.35;;;24.80;59.90;;;;;;4387794;28;657399;-67
2022/06/18 11:17:17;;;;;;;2.40;1.55;;;25.10;59.90;;;;;;4384950;28;656758;-67
2022/06/18 11:20:09;;;;;;;1.95;1.20;;;25.40;61.50;;;;;;4385054;28;657899;-66
2022/06/18 11:22:57;;;;;;;6.70;1.55;;;25.20;58.10;;;;;;4386575;28;656392;-66
2022/06/18 11:25:46;;;;;;;2.97;1.33;;;25.20;57.00;;;;;;4408295;28;656912;-66
2022/06/18 11:28:36;;;;;;;2.63;1.40;;;24.90;58.70;;;;;;4386118;28;656357;-67
2022/06/18 11:31:27;;;;;;;5.28;1.60;;;25.30;58.90;;;;;;4382980;28;656749;-67
2022/06/18 11:34:19;;;;;;;2.03;1.50;;;25.60;56.20;;;;;;4387052;28;656276;-67
2022/06/18 11:37:17;;;;;;;2.33;1.30;;;25.50;58.70;;;;;;4357054;28;656483;-67
2022/06/18 11:40:18;;;;;;;1.40;1.20;;;25.60;60.10;;;;;;4380730;28;656847;-67
2022/06/18 11:43:07;;;;;;;7.25;1.40;;;24.90;56.20;;;;;;4368300;28;656469;-67
2022/06/18 11:45:56;;;;;;;5.97;1.30;;;25.40;60.80;;;;;;4400849;28;656864;-66
2022/06/18 11:48:46;;;;;;;4.63;1.40;;;25.00;58.10;;;;;;4378844;28;657483;-67
2022/06/18 11:51:36;;;;;;;2.72;1.30;;;25.20;56.70;;;;;;4382795;28;657014;-67
2022/06/18 11:54:25;;;;;;;2.63;1.15;;;25.30;56.50;;;;;;4383056;28;656607;-66
2022/06/18 11:57:16;;;;;;;2.22;1.15;;;24.90;58.00;;;;;;4386809;28;656674;-67
2022/06/18 12:00:07;;;;;;;1.70;1.17;;;25.20;59.70;;;;;;4382895;28;657176;-67
2022/06/18 12:02:56;;;;;;;3.65;1.33;;;25.80;55.40;;;;;;4381473;28;656671;-67
2022/06/18 12:05:46;;;;;;;2.60;1.63;;;25.60;55.50;;;;;;4384154;28;656952;-67
2022/06/18 12:08:33;;;;;;;1.77;1.40;;;25.20;55.00;;;;;;4378788;28;656733;-67
2022/06/18 12:11:33;;;;;;;2.75;1.13;;;25.20;55.20;;;;;;4390274;28;656753;-66
2022/06/18 12:14:23;;;;;;;1.60;1.23;;;25.00;56.20;;;;;;4365502;28;656844;-67
2022/06/18 12:17:12;;;;;;;4.22;1.40;;;25.10;57.00;;;;;;4389607;28;656819;-67
2022/06/18 12:20:04;;;;;;;3.50;1.23;;;25.80;55.60;;;;;;4409564;28;657054;-67
2022/06/18 12:22:55;;;;;;;1.65;1.25;;;25.80;57.70;;;;;;4356684;28;656644;-67
2022/06/18 12:25:46;;;;;;;2.15;1.20;;;25.80;56.50;;;;;;4383313;28;657126;-67
2022/06/18 12:28:40;;;;;;;2.22;1.30;;;26.10;57.30;;;;;;4383170;28;656641;-67
2022/06/18 12:31:29;;;;;;;2.42;1.15;;;26.20;56.90;;;;;;4360551;28;658078;-67
2022/06/18 12:34:23;;;;;;;2.22;1.00;;;26.30;55.00;;;;;;4389626;28;656785;-67
2022/06/18 12:37:14;;;;;;;2.97;1.17;;;25.40;52.50;;;;;;4358532;28;656991;-67
2022/06/18 12:40:06;;;;;;;5.88;1.30;;;25.80;53.90;;;;;;4384209;28;656344;-67
2022/06/18 12:42:54;;;;;;;1.60;1.02;;;26.20;56.20;;;;;;4382519;28;657043;-67
2022/06/18 12:45:48;;;;;;;5.38;1.15;;;26.10;54.20;;;;;;4385826;28;656388;-67
2022/06/18 12:48:45;;;;;;;1.70;1.10;;;26.90;54.20;;;;;;4384642;28;657107;-67
2022/06/18 12:51:35;;;;;;;3.72;1.20;;;26.80;55.30;;;;;;4354866;28;657371;-67
2022/06/18 12:54:31;;;;;;;1.60;0.83;;;26.70;57.00;;;;;;4378052;28;657553;-67
2022/06/18 12:57:22;;;;;;;1.40;1.00;;;26.10;53.50;;;;;;4387627;28;656986;-67
2022/06/18 13:00:12;;;;;;;3.85;1.13;;;26.40;56.30;;;;;;4373085;28;656608;-67
2022/06/18 13:03:16;;;;;;;1.63;0.90;;;26.30;52.30;;;;;;4378014;28;656888;-67
2022/06/18 13:06:05;;;;;;;1.58;0.90;;;25.90;53.60;;;;;;4386234;28;656767;-67
2022/06/18 13:08:59;;;;;;;2.17;1.08;;;26.20;52.50;;;;;;4387436;28;657401;-67
2022/06/18 13:11:56;;;;;;;1.38;1.00;;;26.60;52.60;;;;;;4387327;28;656676;-67
2022/06/18 13:14:54;;;;;;;2.72;1.17;;;26.70;53.00;;;;;;4383586;28;657968;-67
2022/06/18 13:17:43;;;;;;;3.53;1.50;;;26.80;52.70;;;;;;4362906;28;657008;-67
2022/06/18 13:20:34;;;;;;;1.45;0.80;;;27.40;54.60;;;;;;4402688;28;657558;-67
2022/06/18 13:29:36;;;;;;;2.65;1.13;;;26.90;51.00;;;;;;4381092;28;657220;-67
2022/06/18 13:32:26;;;;;;;2.05;1.00;;;26.80;50.90;;;;;;4382924;28;656941;-67
2022/06/18 13:35:17;;;;;;;4.43;1.08;;;27.30;49.90;;;;;;4389575;28;656533;-67
2022/06/18 13:38:09;;;;;;;3.25;1.13;;;27.70;52.40;;;;;;4386836;28;656831;-67
2022/06/18 13:40:59;;;;;;;3.13;1.38;;;27.30;50.80;;;;;;4356661;28;657884;-67
2022/06/18 13:43:49;;;;;;;2.42;1.15;;;27.00;53.10;;;;;;4386590;28;656580;-66
2022/06/18 13:46:39;;;;;;;1.42;1.08;;;26.50;51.70;;;;;;4389003;28;656828;-67
2022/06/18 13:49:30;;;;;;;2.50;1.65;;;26.60;53.00;;;;;;4391434;28;657972;-67
2022/06/18 13:52:18;;;;;;;2.38;1.30;;;26.20;52.00;;;;;;4385103;28;657051;-67
2022/06/18 13:55:06;;;;;;;1.65;1.30;;;26.40;51.80;;;;;;4397838;28;656769;-67
2022/06/18 13:57:53;;;;;;;3.00;1.30;;;26.80;54.10;;;;;;4406345;28;657421;-67
2022/06/18 14:00:41;;;;;;;2.53;1.60;;;26.60;51.60;;;;;;4384763;28;656530;-67
2022/06/18 14:03:28;;;;;;;3.92;1.77;;;26.80;52.00;;;;;;4409313;28;656140;-67
2022/06/18 14:06:17;;;;;;;2.92;2.03;;;26.90;51.30;;;;;;4399871;28;656213;-67
2022/06/18 14:09:05;;;;;;;2.53;2.05;;;26.90;50.00;;;;;;4405615;28;656141;-66
2022/06/18 14:11:56;;;;;;;1.67;1.58;;;26.00;52.70;;;;;;4383928;28;658279;-67
2022/06/18 14:14:44;;;;;;;3.60;1.80;;;25.90;50.80;;;;;;4382528;28;657081;-67
2022/06/18 14:17:38;;;;;;;2.72;1.83;;;26.10;50.80;;;;;;4386200;28;656762;-66
2022/06/18 14:20:27;;;;;;;5.05;1.80;;;26.20;51.80;;;;;;4384979;28;657432;-66
2022/06/18 14:23:25;;;;;;;3.05;1.70;;;26.50;51.80;;;;;;4409961;28;657658;-67
2022/06/18 14:26:14;;;;;;;3.30;1.87;;;27.00;52.70;;;;;;4393630;28;656679;-67
2022/06/18 14:29:01;;;;;;;1.98;1.60;;;26.50;51.60;;;;;;4387396;28;656315;-67
2022/06/18 14:31:57;;;;;;;2.08;1.60;;;26.70;53.00;;;;;;4411474;28;656716;-67
2022/06/18 14:34:50;;;;;;;4.25;1.90;;;27.70;55.60;;;;;;4383273;28;656228;-66
2022/06/18 14:37:40;;;;;;;2.67;1.85;;;26.40;52.90;;;;;;4359491;28;656525;-67
2022/06/18 14:40:31;;;;;;;4.45;2.00;;;26.40;52.70;;;;;;4388867;28;657144;-67
2022/06/18 14:43:34;;;;;;;1.88;1.70;;;26.70;51.50;;;;;;4377220;28;656642;-67
2022/06/18 14:46:26;;;;;;;3.33;2.10;;;26.60;52.60;;;;;;4383789;28;657075;-67
2022/06/18 14:49:24;;;;;;;2.00;1.50;;;27.00;54.30;;;;;;4382691;28;657833;-67